createdAt,value
2018-12-11T00:00:32.784Z,2.83
2018-12-11T00:03:04.341Z,2.87
2018-12-11T00:05:35.585Z,3.30
2018-12-11T00:08:05.017Z,2.50
2018-12-11T00:10:35.316Z,3.80
2018-12-11T00:13:05.025Z,3.50
2018-12-11T00:15:34.676Z,2.87
2018-12-11T00:18:03.985Z,3.30
2018-12-11T00:20:33.488Z,2.83
2018-12-11T00:23:02.791Z,2.17
2018-12-11T00:25:32.148Z,2.00
2018-12-11T00:28:01.628Z,2.10
2018-12-11T00:30:30.958Z,2.20
2018-12-11T00:33:00.334Z,2.20
2018-12-11T00:35:31.132Z,2.20
2018-12-11T00:38:00.540Z,2.60
2018-12-11T00:40:29.927Z,2.47
2018-12-11T00:42:59.485Z,2.07
2018-12-11T00:45:28.847Z,2.30
2018-12-11T00:47:58.342Z,2.33
2018-12-11T00:50:28.208Z,2.70
2018-12-11T00:52:57.652Z,2.20
2018-12-11T00:55:26.865Z,3.20
2018-12-11T00:57:56.619Z,2.53
2018-12-11T01:00:25.984Z,2.83
2018-12-11T01:02:55.333Z,2.83
2018-12-11T01:05:25.189Z,2.57
2018-12-11T01:07:54.551Z,2.53
2018-12-11T01:10:23.796Z,2.70
2018-12-11T01:12:53.475Z,2.67
2018-12-11T01:15:22.919Z,2.47
2018-12-11T01:17:52.366Z,2.13
2018-12-11T01:20:21.718Z,2.27
2018-12-11T01:22:51.067Z,2.90
2018-12-11T01:25:20.872Z,3.70
2018-12-11T01:27:50.308Z,2.50
2018-12-11T01:30:19.587Z,2.70
2018-12-11T01:32:48.879Z,2.40
2018-12-11T01:35:18.158Z,1.80
2018-12-11T01:37:47.374Z,2.53
2018-12-11T01:40:17.028Z,2.50
2018-12-11T01:42:46.459Z,2.57
2018-12-11T01:45:15.731Z,2.10
2018-12-11T01:47:45.594Z,2.57
2018-12-11T01:50:14.803Z,2.80
2018-12-11T01:52:44.017Z,2.50
2018-12-11T01:55:13.699Z,2.53
2018-12-11T01:57:43.180Z,2.67
2018-12-11T02:00:12.464Z,2.53
2018-12-11T02:02:41.964Z,3.07
2018-12-11T02:05:11.252Z,2.73
2018-12-11T02:07:40.693Z,2.43
2018-12-11T02:10:10.361Z,2.63
2018-12-11T02:12:39.705Z,2.50
2018-12-11T02:15:09.205Z,2.23
2018-12-11T02:17:38.952Z,2.63
2018-12-11T02:20:10.605Z,2.57
2018-12-11T02:22:40.049Z,3.07
2018-12-11T02:25:09.506Z,2.67
2018-12-11T02:27:38.844Z,2.20
2018-12-11T02:30:08.522Z,2.10
2018-12-11T02:32:38.155Z,2.03
2018-12-11T02:35:07.608Z,2.00
2018-12-11T02:37:37.252Z,2.10
2018-12-11T02:40:06.847Z,2.40
2018-12-11T02:42:36.052Z,2.37
2018-12-11T02:45:06.491Z,2.90
2018-12-11T02:47:35.748Z,3.10
2018-12-11T02:50:06.793Z,2.07
2018-12-11T02:52:36.191Z,2.90
2018-12-11T02:55:06.257Z,2.40
2018-12-11T02:57:35.733Z,2.93
2018-12-11T03:00:06.821Z,2.80
2018-12-11T03:02:36.108Z,1.80
2018-12-11T03:05:05.944Z,2.17
2018-12-11T03:07:35.432Z,2.67
2018-12-11T03:10:05.881Z,1.87
2018-12-11T03:12:35.519Z,2.13
2018-12-11T03:15:05.689Z,2.00
2018-12-11T03:17:34.923Z,1.50
2018-12-11T03:20:04.945Z,2.43
2018-12-11T03:22:34.326Z,1.63
2018-12-11T03:25:03.802Z,1.90
2018-12-11T03:27:33.023Z,2.20
2018-12-11T03:30:02.487Z,2.17
2018-12-11T03:32:33.006Z,2.23
2018-12-11T03:35:02.558Z,1.50
2018-12-11T03:37:31.978Z,2.47
2018-12-11T03:40:01.349Z,2.20
2018-12-11T03:42:30.823Z,1.90
2018-12-11T03:45:00.222Z,2.23
2018-12-11T03:47:29.468Z,2.73
2018-12-11T03:49:58.853Z,1.87
2018-12-11T03:52:28.237Z,2.27
2018-12-11T03:54:57.703Z,2.33
2018-12-11T03:57:27.252Z,3.33
2018-12-11T03:59:56.639Z,2.97
2018-12-11T04:02:25.926Z,2.30
2018-12-11T04:04:55.418Z,2.40
2018-12-11T04:07:24.715Z,2.93
2018-12-11T04:09:54.179Z,2.83
2018-12-11T04:12:23.636Z,3.00
2018-12-11T04:14:53.414Z,2.50
2018-12-11T04:17:22.641Z,2.60
2018-12-11T04:19:52.038Z,3.03
2018-12-11T04:22:21.389Z,2.63
2018-12-11T04:24:50.680Z,3.00
2018-12-11T04:27:20.082Z,2.67
2018-12-11T04:29:49.369Z,3.07
2018-12-11T04:32:18.644Z,2.87
2018-12-11T04:34:48.088Z,2.70
2018-12-11T04:37:17.600Z,2.63
2018-12-11T04:39:47.148Z,3.27
2018-12-11T04:42:16.498Z,2.80
2018-12-11T04:44:45.893Z,3.33
2018-12-11T04:47:15.120Z,2.70
2018-12-11T04:49:44.543Z,2.33
2018-12-11T04:52:13.811Z,2.67
2018-12-11T04:54:43.463Z,3.53
2018-12-11T04:57:12.980Z,3.43
2018-12-11T04:59:42.253Z,3.63
2018-12-11T05:02:11.574Z,3.60
2018-12-11T05:04:40.931Z,4.07
2018-12-11T05:07:10.262Z,8.07
2018-12-11T05:09:39.582Z,3.80
2018-12-11T05:12:09.026Z,4.50
2018-12-11T05:14:38.273Z,3.50
2018-12-11T05:17:07.679Z,4.37
2018-12-11T05:19:37.117Z,4.10
2018-12-11T05:22:06.714Z,5.33
2018-12-11T05:24:36.067Z,3.87
2018-12-11T05:27:05.575Z,4.53
2018-12-11T05:29:35.005Z,4.73
2018-12-11T05:32:04.479Z,3.00
2018-12-11T05:34:33.920Z,4.50
2018-12-11T05:37:03.660Z,14.03
2018-12-11T05:39:34.452Z,9.30
2018-12-11T05:42:03.892Z,5.97
2018-12-11T05:44:33.265Z,6.87
2018-12-11T05:47:02.711Z,7.40
2018-12-11T05:49:32.007Z,5.87
2018-12-11T05:52:01.235Z,3.77
2018-12-11T05:54:31.670Z,4.30
2018-12-11T05:57:00.977Z,2.67
2018-12-11T05:59:30.288Z,2.87
2018-12-11T06:01:59.699Z,2.90
2018-12-11T06:04:29.062Z,2.70
2018-12-11T06:06:58.493Z,2.93
2018-12-11T06:09:27.753Z,3.03
2018-12-11T06:11:57.097Z,3.37
2018-12-11T06:14:26.380Z,2.77
2018-12-11T06:16:55.698Z,3.17
2018-12-11T06:19:25.144Z,2.43
2018-12-11T06:21:54.487Z,3.00
2018-12-11T06:24:23.887Z,3.17
2018-12-11T06:26:53.333Z,2.90
2018-12-11T06:29:22.720Z,3.20
2018-12-11T06:31:52.105Z,3.30
2018-12-11T06:34:21.576Z,3.57
2018-12-11T06:36:51.321Z,3.40
2018-12-11T06:39:20.598Z,3.60
2018-12-11T06:41:49.995Z,4.13
2018-12-11T06:44:19.468Z,7.00
2018-12-11T06:46:48.815Z,7.23
2018-12-11T06:49:19.355Z,7.37
2018-12-11T06:51:48.601Z,6.60
2018-12-11T06:54:17.811Z,8.93
2018-12-11T06:56:47.311Z,9.57
2018-12-11T06:59:16.902Z,7.70
2018-12-11T07:01:46.139Z,6.60
2018-12-11T07:04:16.671Z,4.83
2018-12-11T07:06:46.006Z,4.57
2018-12-11T07:09:15.734Z,4.17
2018-12-11T07:11:45.307Z,4.13
2018-12-11T07:14:14.594Z,4.57
2018-12-11T07:16:43.936Z,3.60
2018-12-11T07:19:13.677Z,3.20
2018-12-11T07:21:42.963Z,3.47
2018-12-11T07:24:12.268Z,5.33
2018-12-11T07:26:41.866Z,4.87
2018-12-11T07:29:11.144Z,5.47
2018-12-11T07:31:40.550Z,5.37
2018-12-11T07:34:10.095Z,4.00
2018-12-11T07:39:19.318Z,5.27
2018-12-11T07:41:48.749Z,4.07
2018-12-11T07:44:18.504Z,4.37
2018-12-11T07:46:47.930Z,4.33
2018-12-11T07:49:18.423Z,3.07
2018-12-11T07:51:48.303Z,3.70
2018-12-11T07:54:17.631Z,4.57
2018-12-11T07:56:46.938Z,3.53
2018-12-11T07:59:16.385Z,3.27
2018-12-11T08:01:45.748Z,3.40
2018-12-11T08:04:15.165Z,3.27
2018-12-11T08:06:44.692Z,3.00
2018-12-11T08:09:14.140Z,3.10
2018-12-11T08:11:43.481Z,2.93
2018-12-11T08:14:12.954Z,2.17
2018-12-11T08:16:42.668Z,2.90
2018-12-11T08:19:12.549Z,2.63
2018-12-11T08:21:42.547Z,2.77
2018-12-11T08:24:12.015Z,2.70
2018-12-11T08:26:41.479Z,2.30
2018-12-11T08:29:10.965Z,2.87
2018-12-11T08:31:40.309Z,2.73
2018-12-11T08:34:09.587Z,2.20
2018-12-11T08:36:38.786Z,2.60
2018-12-11T08:39:08.591Z,4.30
2018-12-11T08:41:39.052Z,3.20
2018-12-11T08:44:08.497Z,3.27
2018-12-11T08:46:38.040Z,2.67
2018-12-11T08:49:07.598Z,2.67
2018-12-11T08:51:38.561Z,2.50
2018-12-11T08:54:07.809Z,4.50
2018-12-11T08:56:37.126Z,2.20
2018-12-11T08:59:06.949Z,3.00
2018-12-11T09:01:36.652Z,2.70
2018-12-11T09:04:05.956Z,9.43
2018-12-11T09:06:35.423Z,4.63
2018-12-11T09:09:06.465Z,4.67
2018-12-11T09:11:37.904Z,3.40
2018-12-11T09:14:07.146Z,2.27
2018-12-11T09:16:36.513Z,2.83
2018-12-11T09:19:05.697Z,2.80
2018-12-11T09:21:35.181Z,2.20
2018-12-11T09:24:04.598Z,5.23
2018-12-11T09:26:33.816Z,2.10
2018-12-11T09:29:03.060Z,3.73
2018-12-11T09:31:34.259Z,2.83
2018-12-11T09:34:03.628Z,2.07
2018-12-11T09:36:33.248Z,1.93
2018-12-11T09:39:02.624Z,2.30
2018-12-11T09:41:32.162Z,2.40
2018-12-11T09:44:01.600Z,3.10
2018-12-11T09:46:30.958Z,2.03
2018-12-11T09:49:00.207Z,1.60
2018-12-11T09:51:29.570Z,2.00
2018-12-11T09:53:58.893Z,2.20
2018-12-11T09:56:28.291Z,3.23
2018-12-11T09:58:57.752Z,2.90
2018-12-11T10:01:27.052Z,2.00
2018-12-11T10:03:56.731Z,1.60
2018-12-11T10:06:26.021Z,2.37
2018-12-11T10:08:59.472Z,3.07
2018-12-11T10:11:28.706Z,2.00
2018-12-11T10:13:58.122Z,3.10
2018-12-11T10:16:28.538Z,2.33
2018-12-11T10:18:57.885Z,3.50
2018-12-11T10:21:27.164Z,3.63
2018-12-11T10:23:56.618Z,2.60
2018-12-11T10:26:26.178Z,1.93
2018-12-11T10:28:55.452Z,2.63
2018-12-11T10:31:24.684Z,2.23
2018-12-11T10:33:54.121Z,1.90
2018-12-11T10:36:23.581Z,2.50
2018-12-11T10:38:52.940Z,2.10
2018-12-11T10:41:22.357Z,1.83
2018-12-11T10:43:51.810Z,2.40
2018-12-11T10:46:21.196Z,2.17
2018-12-11T10:48:50.633Z,1.83
2018-12-11T10:51:19.932Z,2.17
2018-12-11T10:53:49.292Z,2.00
2018-12-11T10:56:18.946Z,1.43
2018-12-11T10:58:48.391Z,2.00
2018-12-11T11:01:18.283Z,1.70
2018-12-11T11:03:47.899Z,2.63
2018-12-11T11:06:17.218Z,2.23
2018-12-11T11:08:46.552Z,3.10
2018-12-11T11:11:15.772Z,2.70
2018-12-11T11:13:45.096Z,3.03
2018-12-11T11:16:15.373Z,1.20
2018-12-11T11:18:45.452Z,1.17
2018-12-11T11:21:14.886Z,2.10
2018-12-11T11:23:44.273Z,2.20
2018-12-11T11:26:13.644Z,4.33
2018-12-11T11:28:43.017Z,2.97
2018-12-11T11:31:12.420Z,2.77
2018-12-11T11:33:41.996Z,2.50
2018-12-11T11:36:11.311Z,1.83
2018-12-11T11:38:40.672Z,2.80
2018-12-11T11:41:10.128Z,3.10
2018-12-11T11:43:39.613Z,4.20
2018-12-11T11:46:09.042Z,2.83
2018-12-11T11:48:38.531Z,2.77
2018-12-11T11:51:07.903Z,2.90
2018-12-11T11:53:37.248Z,2.80
2018-12-11T11:56:06.943Z,2.87
2018-12-11T11:58:36.221Z,2.53
2018-12-11T12:01:05.729Z,2.43
2018-12-11T12:03:34.938Z,1.80
2018-12-11T12:06:04.348Z,1.30
2018-12-11T12:08:33.683Z,1.63
2018-12-11T12:11:04.894Z,2.23
2018-12-11T12:13:34.407Z,1.70
2018-12-11T12:16:03.837Z,2.03
2018-12-11T12:18:33.271Z,2.37
2018-12-11T12:21:02.864Z,1.87
2018-12-11T12:23:32.319Z,2.23
2018-12-11T12:26:01.824Z,2.67
2018-12-11T12:28:31.304Z,2.77
2018-12-11T12:31:02.042Z,3.20
2018-12-11T12:33:31.440Z,5.30
2018-12-11T12:36:00.672Z,4.40
2018-12-11T12:38:30.222Z,3.70
2018-12-11T12:40:59.734Z,2.90
2018-12-11T12:43:29.012Z,3.00
2018-12-11T12:45:58.376Z,3.33
2018-12-11T12:48:27.760Z,4.50
2018-12-11T12:50:56.948Z,4.27
2018-12-11T12:53:26.374Z,5.00
2018-12-11T12:55:55.718Z,4.77
2018-12-11T12:58:25.094Z,7.00
2018-12-11T13:00:54.977Z,5.13
2018-12-11T13:03:24.541Z,4.10
2018-12-11T13:05:54.110Z,3.43
2018-12-11T13:08:23.360Z,3.80
2018-12-11T13:10:52.596Z,3.33
2018-12-11T13:13:21.872Z,2.20
2018-12-11T13:15:51.248Z,3.17
2018-12-11T13:18:20.636Z,2.33
2018-12-11T13:20:50.011Z,3.13
2018-12-11T13:23:19.282Z,3.10
2018-12-11T13:25:48.978Z,3.90
2018-12-11T13:28:18.660Z,2.90
2018-12-11T13:30:48.165Z,3.67
2018-12-11T13:33:17.572Z,3.20
2018-12-11T13:35:47.255Z,2.50
2018-12-11T13:38:16.559Z,3.57
2018-12-11T13:40:46.355Z,3.67
2018-12-11T13:43:16.655Z,2.93
2018-12-11T13:45:46.244Z,3.33
2018-12-11T13:48:15.665Z,4.40
2018-12-11T13:50:45.073Z,4.07
2018-12-11T13:53:14.527Z,4.10
2018-12-11T13:55:43.853Z,4.47
2018-12-11T13:58:13.202Z,2.70
2018-12-11T14:00:42.477Z,4.00
2018-12-11T14:03:11.912Z,3.90
2018-12-11T14:05:41.242Z,6.13
2018-12-11T14:08:10.759Z,9.27
2018-12-11T14:10:40.026Z,7.07
2018-12-11T14:13:09.407Z,4.30
2018-12-11T14:15:38.883Z,4.47
2018-12-11T14:18:08.240Z,4.20
2018-12-11T14:20:37.531Z,4.77
2018-12-11T14:23:06.747Z,4.83
2018-12-11T14:25:36.229Z,5.90
2018-12-11T14:28:05.605Z,6.80
2018-12-11T14:30:34.992Z,8.73
2018-12-11T14:33:04.200Z,8.20
2018-12-11T14:35:33.606Z,11.93
2018-12-11T14:38:02.826Z,5.57
2018-12-11T14:40:32.136Z,7.67
2018-12-11T14:43:01.532Z,7.07
2018-12-11T14:45:30.986Z,5.00
2018-12-11T14:48:01.818Z,7.20
2018-12-11T14:50:31.172Z,7.43
2018-12-11T14:53:00.420Z,5.07
2018-12-11T14:55:29.799Z,3.73
2018-12-11T14:57:59.096Z,3.47
2018-12-11T15:00:28.557Z,5.03
2018-12-11T15:02:58.124Z,5.60
2018-12-11T15:05:27.583Z,6.03
2018-12-11T15:07:57.087Z,5.40
2018-12-11T15:10:26.449Z,6.13
2018-12-11T15:12:56.929Z,6.37
2018-12-11T15:15:26.110Z,6.77
2018-12-11T15:17:55.370Z,8.27
2018-12-11T15:20:24.766Z,6.93
2018-12-11T15:22:54.020Z,5.57
2018-12-11T15:25:23.368Z,5.17
2018-12-11T15:27:52.855Z,5.50
2018-12-11T15:30:22.167Z,3.83
2018-12-11T15:32:51.440Z,3.00
2018-12-11T15:35:20.864Z,3.80
2018-12-11T15:37:50.180Z,4.97
2018-12-11T15:40:19.707Z,4.23
2018-12-11T15:42:49.111Z,6.40
2018-12-11T15:45:18.532Z,8.60
2018-12-11T15:47:47.842Z,27.70
2018-12-11T15:50:17.605Z,39.63
2018-12-11T15:52:46.923Z,21.90
2018-12-11T15:55:16.137Z,36.50
2018-12-11T15:57:45.470Z,18.87
2018-12-11T16:00:15.428Z,9.07
2018-12-11T16:02:44.817Z,11.03
2018-12-11T16:05:14.216Z,12.10
2018-12-11T16:07:43.550Z,6.37
2018-12-11T16:10:12.925Z,6.60
2018-12-11T16:12:42.361Z,5.50
2018-12-11T16:15:11.761Z,8.37
2018-12-11T16:17:41.183Z,6.60
2018-12-11T16:20:10.574Z,6.77
2018-12-11T16:22:39.861Z,6.17
2018-12-11T16:25:09.565Z,8.57
2018-12-11T16:27:39.218Z,9.30
2018-12-11T16:30:08.917Z,6.30
2018-12-11T16:32:38.294Z,5.77
2018-12-11T16:35:07.859Z,6.47
2018-12-11T16:37:37.564Z,5.10
2018-12-11T16:40:07.010Z,5.47
2018-12-11T16:42:36.502Z,8.47
2018-12-11T16:47:41.111Z,23.07
2018-12-11T16:50:10.582Z,10.50
2018-12-11T16:52:39.983Z,12.17
2018-12-11T16:55:09.381Z,10.63
2018-12-11T16:57:38.819Z,9.03
2018-12-11T17:00:09.661Z,10.93
2018-12-11T17:02:39.060Z,8.67
2018-12-11T17:05:08.568Z,7.80
2018-12-11T17:07:38.033Z,7.13
2018-12-11T17:10:07.841Z,6.47
2018-12-11T17:12:37.309Z,5.27
2018-12-11T17:15:10.789Z,5.07
2018-12-11T17:17:40.183Z,6.57
2018-12-11T17:20:09.703Z,6.03
2018-12-11T17:22:38.912Z,7.20
2018-12-11T17:25:08.509Z,6.27
2018-12-11T17:27:38.063Z,12.87
2018-12-11T17:30:07.995Z,18.00
2018-12-11T17:32:37.463Z,10.57
2018-12-11T17:35:07.027Z,9.13
2018-12-11T17:37:36.487Z,7.83
2018-12-11T17:40:06.474Z,8.03
2018-12-11T17:42:35.663Z,4.77
2018-12-11T17:45:05.195Z,5.43
2018-12-11T17:47:34.663Z,5.13
2018-12-11T17:50:05.110Z,7.73
2018-12-11T17:52:35.501Z,9.10
2018-12-11T17:55:04.979Z,11.93
2018-12-11T17:57:34.505Z,13.73
2018-12-11T18:00:04.081Z,8.33
2018-12-11T18:02:37.155Z,8.60
2018-12-11T18:05:07.466Z,7.87
2018-12-11T18:07:36.929Z,6.83
2018-12-11T18:10:07.435Z,6.70
2018-12-11T18:12:36.964Z,6.80
2018-12-11T18:15:06.820Z,4.50
2018-12-11T18:17:36.221Z,6.60
2018-12-11T18:20:06.754Z,7.03
2018-12-11T18:22:36.124Z,8.67
2018-12-11T18:25:05.829Z,6.50
2018-12-11T18:27:35.092Z,5.07
2018-12-11T18:30:05.628Z,3.83
2018-12-11T18:32:34.992Z,3.80
2018-12-11T18:35:05.812Z,4.40
2018-12-11T18:37:35.461Z,4.70
2018-12-11T18:40:06.983Z,4.97
2018-12-11T18:42:36.240Z,3.97
2018-12-11T18:45:06.035Z,6.00
2018-12-11T18:47:35.370Z,5.80
2018-12-11T18:50:05.223Z,4.97
2018-12-11T18:52:34.799Z,5.03
2018-12-11T18:55:04.346Z,5.13
2018-12-11T18:57:34.891Z,5.20
2018-12-11T19:00:04.952Z,5.10
2018-12-11T19:02:34.462Z,4.40
2018-12-11T19:05:04.251Z,5.23
2018-12-11T19:07:33.921Z,8.50
2018-12-11T19:10:03.685Z,5.57
2018-12-11T19:12:32.907Z,7.37
2018-12-11T19:15:04.861Z,6.60
2018-12-11T19:17:33.446Z,5.90
2018-12-11T19:20:02.827Z,7.20
2018-12-11T19:22:33.572Z,6.97
2018-12-11T19:25:03.175Z,6.30
2018-12-11T19:27:33.929Z,6.97
2018-12-11T19:30:03.531Z,8.07
2018-12-11T19:32:32.985Z,7.17
2018-12-11T19:35:02.577Z,7.87
2018-12-11T19:37:33.786Z,7.70
2018-12-11T19:40:03.373Z,8.30
2018-12-11T19:42:32.660Z,5.30
2018-12-11T19:45:01.952Z,7.77
2018-12-11T19:47:31.250Z,8.10
2018-12-11T19:50:00.447Z,6.63
2018-12-11T19:52:29.834Z,4.87
2018-12-11T19:54:59.153Z,5.40
2018-12-11T19:57:28.514Z,4.73
2018-12-11T19:59:57.840Z,7.13
2018-12-11T20:02:27.344Z,5.50
2018-12-11T20:04:56.891Z,5.90
2018-12-11T20:07:26.223Z,7.23
2018-12-11T20:10:00.681Z,6.07
2018-12-11T20:12:30.086Z,5.27
2018-12-11T20:15:04.681Z,5.73
2018-12-11T20:17:30.981Z,5.13
2018-12-11T20:20:00.429Z,7.53
2018-12-11T20:22:29.818Z,5.97
2018-12-11T20:24:59.192Z,6.20
2018-12-11T20:27:28.662Z,7.20
2018-12-11T20:29:58.087Z,6.10
2018-12-11T20:32:27.446Z,10.90
2018-12-11T20:34:56.825Z,8.23
2018-12-11T20:37:26.182Z,5.90
2018-12-11T20:39:55.564Z,6.97
2018-12-11T20:42:24.886Z,9.17
2018-12-11T20:44:54.199Z,6.77
2018-12-11T20:47:23.364Z,6.50
2018-12-11T20:49:52.726Z,8.30
2018-12-11T20:52:22.122Z,7.50
2018-12-11T20:54:51.315Z,8.60
2018-12-11T20:57:20.647Z,7.73
2018-12-11T20:59:50.041Z,7.67
2018-12-11T21:02:19.344Z,6.03
2018-12-11T21:04:48.599Z,5.10
2018-12-11T21:07:18.072Z,6.40
2018-12-11T21:09:47.564Z,5.43
2018-12-11T21:12:16.857Z,5.67
2018-12-11T21:14:46.177Z,5.10
2018-12-11T21:17:15.355Z,5.03
2018-12-11T21:19:44.750Z,4.60
2018-12-11T21:22:14.287Z,4.83
2018-12-11T21:24:43.596Z,5.60
2018-12-11T21:27:13.211Z,4.77
2018-12-11T21:29:42.559Z,5.33
2018-12-11T21:32:11.959Z,4.80
2018-12-11T21:34:41.175Z,5.13
2018-12-11T21:37:10.660Z,3.93
2018-12-11T21:39:39.993Z,4.77
2018-12-11T21:42:09.256Z,6.33
2018-12-11T21:44:38.689Z,5.30
2018-12-11T21:47:08.167Z,5.00
2018-12-11T21:49:37.507Z,4.37
2018-12-11T21:52:06.792Z,4.57
2018-12-11T21:54:36.176Z,3.87
2018-12-11T21:57:05.500Z,4.03
2018-12-11T21:59:34.739Z,4.20
2018-12-11T22:02:04.102Z,4.20
2018-12-11T22:04:33.347Z,4.80
2018-12-11T22:07:02.710Z,3.77
2018-12-11T22:09:32.062Z,4.13
2018-12-11T22:12:02.655Z,4.40
2018-12-11T22:14:32.164Z,4.57
2018-12-11T22:17:01.421Z,4.47
2018-12-11T22:19:30.854Z,3.27
2018-12-11T22:22:00.272Z,3.60
2018-12-11T22:24:29.752Z,3.93
2018-12-11T22:26:59.005Z,3.73
2018-12-11T22:29:28.358Z,4.23
2018-12-11T22:31:57.616Z,3.63
2018-12-11T22:34:26.854Z,3.20
2018-12-11T22:36:56.179Z,3.27
2018-12-11T22:39:25.581Z,3.23
2018-12-11T22:41:55.000Z,5.63
2018-12-11T22:44:24.406Z,3.90
2018-12-11T22:46:54.525Z,3.33
2018-12-11T22:49:24.023Z,4.10
2018-12-11T22:51:53.681Z,3.90
2018-12-11T22:54:23.393Z,3.97
2018-12-11T22:56:52.839Z,4.07
2018-12-11T22:59:22.378Z,3.73
2018-12-11T23:01:51.870Z,3.23
2018-12-11T23:04:21.189Z,3.90
2018-12-11T23:06:50.664Z,3.10
2018-12-11T23:09:20.168Z,3.57
2018-12-11T23:11:49.483Z,3.17
2018-12-11T23:14:18.734Z,4.23
2018-12-11T23:16:48.096Z,10.20
2018-12-11T23:19:17.594Z,8.13
2018-12-11T23:21:46.960Z,3.20
2018-12-11T23:24:16.169Z,4.07
2018-12-11T23:26:47.626Z,3.63
2018-12-11T23:29:17.188Z,3.33
2018-12-11T23:31:46.590Z,3.13
2018-12-11T23:34:16.168Z,3.33
2018-12-11T23:36:45.477Z,3.30
2018-12-11T23:39:14.738Z,3.27
2018-12-11T23:41:44.107Z,3.20
2018-12-11T23:44:13.373Z,3.27
2018-12-11T23:46:42.635Z,3.20
2018-12-11T23:49:11.910Z,3.20
2018-12-11T23:51:41.145Z,2.80
2018-12-11T23:54:10.516Z,3.03
2018-12-11T23:56:39.773Z,2.70
2018-12-11T23:59:09.657Z,3.40
